Aviation Digital Data Service (ADDS)

Output produced by METARs form (1705 UTC 19 January 2017)
found at http://aviationweather.gov/adds/metars/
 
KRME 191401Z 1914/2012 27007KT 5SM BR OVC007 
     TEMPO 1914/1917 2SM -RASN BR OVC005 
     FM191900 VRB03KT P6SM BKN020 
     FM200300 00000KT 3SM BR BKN015